Rolling Hills Estates, California
Current Conditions -  °F | °C
As of 2:53 PM on Tuesday 21 Oct 2014 (Local Time) from KHHR Reporting Station
Few Clouds Few Clouds  
Wind Chill: 74°   Ceiling: Unl
Heat Index: 74°   Visibility: 10mi
Dew Point: 63°   Wind: 10mph
Humidity: 68%   Direction: 260°W
Pressure: 29.85"   Gusts: NA
Location:  33.7553°N, 118.364°W
Report Text: KHHR 212153Z 26009KT 10SM FEW020 23/17 A2985 RMK AO2 SLP107 T02330172
Loading
Personal Weather Stations






























Interactive Weather Map
Tropical Storm Tracking
New forecast layout! Learn more

10-Day Weather Forecast

Advertisements
Track Severe Weather on mobile